createdAt,value
2022-12-18T00:02:02.641Z,-6.50
2022-12-18T00:04:49.980Z,-6.40
2022-12-18T00:07:37.487Z,-4.70
2022-12-18T00:10:24.642Z,-6.50
2022-12-18T00:13:12.822Z,-6.50
2022-12-18T00:16:08.939Z,-6.60
2022-12-18T00:18:57.761Z,-6.60
2022-12-18T00:21:45.350Z,-5.50
2022-12-18T00:24:32.626Z,-6.70
2022-12-18T00:27:19.706Z,-6.60
2022-12-18T00:30:07.390Z,-6.70
2022-12-18T00:32:54.524Z,-6.70
2022-12-18T00:35:41.783Z,-6.70
2022-12-18T00:38:30.687Z,-6.70
2022-12-18T00:41:39.084Z,-6.70
2022-12-18T00:44:26.331Z,-6.80
2022-12-18T00:47:13.650Z,-6.80
2022-12-18T00:50:00.745Z,-6.80
2022-12-18T00:52:48.112Z,-6.80
2022-12-18T00:55:35.472Z,-6.70
2022-12-18T00:58:22.556Z,-6.70
2022-12-18T01:01:09.730Z,-6.60
2022-12-18T01:03:56.867Z,-6.60
2022-12-18T01:06:44.741Z,-6.70
2022-12-18T01:09:31.853Z,-6.80
2022-12-18T01:12:19.117Z,-6.90
2022-12-18T01:15:07.613Z,-6.80
2022-12-18T01:17:54.884Z,-6.90
2022-12-18T01:20:42.401Z,-6.90
2022-12-18T01:23:29.770Z,-6.20
2022-12-18T01:26:17.403Z,-7.00
2022-12-18T01:29:04.554Z,-6.90
2022-12-18T01:31:52.474Z,-5.30
2022-12-18T01:34:39.991Z,-6.90
2022-12-18T01:37:27.186Z,-7.00
2022-12-18T01:40:14.328Z,-6.80
2022-12-18T01:43:01.489Z,-6.80
2022-12-18T01:45:48.994Z,-6.80
2022-12-18T01:48:36.198Z,-6.80
2022-12-18T01:51:26.580Z,-6.80
2022-12-18T01:54:13.701Z,-6.80
2022-12-18T01:57:01.919Z,-6.80
2022-12-18T01:59:53.826Z,-6.80
2022-12-18T02:02:43.918Z,-6.90
2022-12-18T02:05:50.094Z,-6.90
2022-12-18T02:08:46.236Z,-7.00
2022-12-18T02:11:54.581Z,-6.90
2022-12-18T02:15:03.749Z,-6.90
2022-12-18T02:17:55.780Z,-7.00
2022-12-18T02:20:53.741Z,-7.00
2022-12-18T02:23:48.007Z,-7.00
2022-12-18T02:26:46.616Z,-7.00
2022-12-18T02:29:39.854Z,-7.00
2022-12-18T02:32:35.255Z,-6.90
2022-12-18T02:35:28.445Z,-6.80
2022-12-18T02:38:19.058Z,-6.90
2022-12-18T02:41:09.139Z,-6.90
2022-12-18T02:44:03.262Z,-6.90
2022-12-18T02:46:54.060Z,-6.80
2022-12-18T02:50:00.424Z,-6.70
2022-12-18T02:53:10.403Z,-6.90
2022-12-18T02:56:27.336Z,-6.90
2022-12-18T02:59:25.358Z,-6.80
2022-12-18T03:02:24.935Z,-6.80
2022-12-18T03:05:20.545Z,-6.70
2022-12-18T03:08:15.307Z,-6.80
2022-12-18T03:11:07.820Z,-6.80
2022-12-18T03:13:59.503Z,-6.80
2022-12-18T03:16:50.364Z,-6.70
2022-12-18T03:19:40.194Z,-6.70
2022-12-18T03:22:30.574Z,-6.80
2022-12-18T03:25:19.959Z,-6.80
2022-12-18T03:28:14.421Z,-6.70
2022-12-18T03:31:05.660Z,-6.80
2022-12-18T03:33:56.319Z,-6.80
2022-12-18T03:36:51.299Z,-6.80
2022-12-18T03:39:39.358Z,-6.80
2022-12-18T03:42:32.441Z,-6.70
2022-12-18T03:45:53.901Z,-6.80
2022-12-18T03:48:57.571Z,-6.80
2022-12-18T03:52:06.565Z,-6.80
2022-12-18T03:54:56.152Z,-6.80
2022-12-18T03:57:45.254Z,-6.90
2022-12-18T04:00:33.998Z,-6.90
2022-12-18T04:03:29.750Z,-6.80
2022-12-18T04:06:18.468Z,-6.80
2022-12-18T04:09:06.282Z,-6.80
2022-12-18T04:12:16.058Z,-6.90
2022-12-18T04:15:06.059Z,-6.80
2022-12-18T04:17:53.238Z,-6.80
2022-12-18T04:20:43.942Z,-6.80
2022-12-18T04:23:32.405Z,-6.70
2022-12-18T04:26:20.215Z,-6.60
2022-12-18T04:29:19.830Z,-6.50
2022-12-18T04:32:09.197Z,-6.50
2022-12-18T04:34:57.628Z,-6.70
2022-12-18T04:37:45.104Z,-6.60
2022-12-18T04:40:35.639Z,-6.60
2022-12-18T04:43:25.508Z,-6.70
2022-12-18T04:46:13.095Z,-6.70
2022-12-18T04:49:01.603Z,-6.70
2022-12-18T04:51:48.718Z,-6.80
2022-12-18T04:54:36.430Z,-6.70
2022-12-18T04:57:23.523Z,-6.60
2022-12-18T05:00:11.302Z,-6.80
2022-12-18T05:02:58.696Z,-6.80
2022-12-18T05:05:45.938Z,-6.90
2022-12-18T05:08:34.051Z,-7.00
2022-12-18T05:11:21.416Z,-7.00
2022-12-18T05:14:08.565Z,-6.90
2022-12-18T05:17:00.557Z,-7.00
2022-12-18T05:19:48.164Z,-6.90
2022-12-18T05:22:35.224Z,-6.90
2022-12-18T05:25:23.170Z,-6.90
2022-12-18T05:28:10.258Z,-6.70
2022-12-18T05:30:59.830Z,-6.80
2022-12-18T05:33:47.101Z,-6.80
2022-12-18T05:36:34.158Z,-6.90
2022-12-18T05:39:21.293Z,-6.90
2022-12-18T05:42:08.789Z,-6.90
2022-12-18T05:44:55.870Z,-6.90
2022-12-18T05:47:43.428Z,-7.00
2022-12-18T05:50:30.605Z,-7.00
2022-12-18T05:53:22.302Z,-7.10
2022-12-18T05:56:13.138Z,-7.10
2022-12-18T05:59:00.371Z,-7.10
2022-12-18T06:01:48.003Z,-7.10
2022-12-18T06:04:35.322Z,-7.10
2022-12-18T06:07:22.437Z,-7.70
2022-12-18T06:10:09.774Z,-7.00
2022-12-18T06:12:57.056Z,-6.90
2022-12-18T06:15:44.280Z,-6.90
2022-12-18T06:18:31.585Z,-6.90
2022-12-18T06:21:18.968Z,-6.90
2022-12-18T06:24:06.570Z,-7.00
2022-12-18T06:26:53.632Z,-7.00
2022-12-18T06:29:40.979Z,-7.00
2022-12-18T06:32:28.735Z,-7.00
2022-12-18T06:35:15.852Z,-7.00
2022-12-18T06:38:03.847Z,-7.10
2022-12-18T06:40:50.938Z,-7.20
2022-12-18T06:43:38.870Z,-7.20
2022-12-18T06:46:26.803Z,-7.10
2022-12-18T06:49:14.164Z,-7.20
2022-12-18T06:52:01.320Z,-7.20
2022-12-18T06:54:48.487Z,-7.20
2022-12-18T06:57:35.637Z,-7.10
2022-12-18T07:00:22.863Z,-7.00
2022-12-18T07:03:10.198Z,-7.10
2022-12-18T07:05:57.427Z,-7.20
2022-12-18T07:08:45.347Z,-7.20
2022-12-18T07:11:34.623Z,-7.10
2022-12-18T07:14:22.200Z,-7.00
2022-12-18T07:17:09.445Z,-7.00
2022-12-18T07:19:56.967Z,-6.90
2022-12-18T07:22:44.307Z,-6.80
2022-12-18T07:25:35.728Z,-6.60
2022-12-18T07:28:22.784Z,-6.80
2022-12-18T07:31:15.468Z,-6.80
2022-12-18T07:34:03.028Z,-6.80
2022-12-18T07:36:50.145Z,-6.90
2022-12-18T07:39:37.348Z,-6.90
2022-12-18T07:42:33.434Z,-6.80
2022-12-18T07:45:20.976Z,-6.80
2022-12-18T07:48:08.521Z,-6.80
2022-12-18T07:51:03.001Z,-6.70
2022-12-18T07:53:52.486Z,-6.70
2022-12-18T07:56:39.792Z,-6.70
2022-12-18T07:59:27.672Z,-6.70
2022-12-18T08:02:14.999Z,-6.70
2022-12-18T08:05:02.655Z,-6.60
2022-12-18T08:07:50.355Z,-6.60
2022-12-18T08:10:38.902Z,-6.70
2022-12-18T08:13:27.051Z,-6.60
2022-12-18T08:16:14.261Z,-6.60
2022-12-18T08:19:01.537Z,-4.40
2022-12-18T08:21:49.520Z,-6.60
2022-12-18T08:24:37.068Z,-6.50
2022-12-18T08:27:31.211Z,-6.40
2022-12-18T08:30:18.517Z,-5.40
2022-12-18T08:33:05.764Z,-6.20
2022-12-18T08:35:53.527Z,-6.10
2022-12-18T08:38:40.942Z,-6.10
2022-12-18T08:41:29.042Z,-6.10
2022-12-18T08:44:35.165Z,-6.00
2022-12-18T08:47:22.348Z,-6.00
2022-12-18T08:50:10.841Z,-6.00
2022-12-18T08:52:57.966Z,-5.90
2022-12-18T08:55:50.068Z,-5.70
2022-12-18T08:58:37.790Z,-5.60
2022-12-18T09:01:25.439Z,-5.60
2022-12-18T09:04:12.813Z,-5.40
2022-12-18T09:06:59.927Z,-5.40
2022-12-18T09:09:46.990Z,-5.30
2022-12-18T09:12:34.402Z,-5.20
2022-12-18T09:15:21.579Z,-5.10
2022-12-18T09:18:10.139Z,-5.10
2022-12-18T09:20:57.339Z,-5.00
2022-12-18T09:23:45.036Z,-5.00
2022-12-18T09:26:32.557Z,-4.80
2022-12-18T09:29:19.730Z,-4.70
2022-12-18T09:32:06.783Z,-4.60
2022-12-18T09:34:53.865Z,-3.00
2022-12-18T09:37:42.949Z,-4.50
2022-12-18T09:40:36.562Z,-4.40
2022-12-18T09:43:48.208Z,-4.40
2022-12-18T09:46:39.456Z,-4.30
2022-12-18T09:49:31.421Z,-4.20
2022-12-18T09:52:41.285Z,-4.10
2022-12-18T09:55:41.245Z,-3.90
2022-12-18T09:58:46.525Z,-3.70
2022-12-18T10:01:41.758Z,-3.70
2022-12-18T10:04:33.130Z,-3.60
2022-12-18T10:07:41.886Z,-3.50
2022-12-18T10:10:38.923Z,-3.50
2022-12-18T10:13:51.210Z,-3.40
2022-12-18T10:17:13.481Z,-3.30
2022-12-18T10:20:11.502Z,-3.20
2022-12-18T10:23:02.557Z,-3.20
2022-12-18T10:25:49.597Z,-3.10
2022-12-18T10:28:40.340Z,-3.00
2022-12-18T10:31:27.706Z,-3.00
2022-12-18T10:34:15.132Z,-3.00
2022-12-18T10:37:07.240Z,-4.30
2022-12-18T10:40:22.048Z,-2.90
2022-12-18T10:43:15.548Z,-2.80
2022-12-18T10:46:02.716Z,-2.70
2022-12-18T10:48:50.108Z,-2.60
2022-12-18T10:51:39.237Z,-2.40
2022-12-18T10:54:27.225Z,-2.50
2022-12-18T10:57:31.534Z,-2.40
2022-12-18T11:00:28.972Z,-2.20
2022-12-18T11:03:36.989Z,-2.10
2022-12-18T11:06:25.688Z,-1.90
2022-12-18T11:09:42.518Z,-1.90
2022-12-18T11:12:30.314Z,-1.90
2022-12-18T11:15:24.436Z,-1.80
2022-12-18T11:18:29.738Z,-1.70
2022-12-18T11:21:17.598Z,-1.60
2022-12-18T11:24:05.227Z,-1.60
2022-12-18T11:26:57.806Z,-1.80
2022-12-18T11:29:47.061Z,-1.90
2022-12-18T11:32:41.742Z,-1.90
2022-12-18T11:35:41.581Z,-2.10
2022-12-18T11:38:35.494Z,-2.10
2022-12-18T11:42:08.538Z,-2.10
2022-12-18T11:45:23.678Z,-2.10
2022-12-18T11:48:33.527Z,-2.20
2022-12-18T11:51:35.444Z,-2.10
2022-12-18T11:54:22.792Z,-2.10
2022-12-18T11:57:30.189Z,-2.00
2022-12-18T12:00:18.848Z,-2.00
2022-12-18T12:03:09.115Z,-1.90
2022-12-18T12:06:24.620Z,-1.80
2022-12-18T12:09:32.958Z,-1.80
2022-12-18T12:12:20.350Z,-1.70
2022-12-18T12:15:33.086Z,-1.60
2022-12-18T12:18:38.369Z,-1.50
2022-12-18T12:21:34.311Z,-1.50
2022-12-18T12:24:45.357Z,-1.40
2022-12-18T12:27:51.855Z,-1.30
2022-12-18T12:30:57.310Z,-1.30
2022-12-18T12:34:22.078Z,-1.30
2022-12-18T12:37:19.909Z,-1.20
2022-12-18T12:40:40.802Z,-1.20
2022-12-18T12:43:23.350Z,-1.20
2022-12-18T12:46:12.973Z,-1.00
2022-12-18T12:49:05.156Z,-1.00
2022-12-18T12:52:08.755Z,-1.00
2022-12-18T12:54:57.660Z,-1.00
2022-12-18T12:58:10.373Z,1.10
2022-12-18T13:01:26.894Z,-0.90
2022-12-18T13:04:24.885Z,-0.80
2022-12-18T13:07:19.098Z,-0.80
2022-12-18T13:10:26.802Z,1.00
2022-12-18T13:13:17.317Z,-0.70
2022-12-18T13:16:11.546Z,-0.70
2022-12-18T13:18:59.812Z,-0.60
2022-12-18T13:21:54.676Z,-0.60
2022-12-18T13:24:42.399Z,-0.70
2022-12-18T13:27:44.646Z,-0.70
2022-12-18T13:30:34.738Z,-0.80
2022-12-18T13:33:56.311Z,-0.80
2022-12-18T13:36:49.552Z,-0.90
2022-12-18T13:39:38.275Z,-0.90
2022-12-18T13:42:44.092Z,-0.90
2022-12-18T13:48:56.300Z,-0.90
2022-12-18T13:51:45.846Z,-1.00
2022-12-18T13:54:40.697Z,-0.90
2022-12-18T13:57:39.367Z,-0.90
2022-12-18T14:00:32.799Z,-1.00
2022-12-18T14:03:23.916Z,-0.90
2022-12-18T14:06:13.926Z,-1.00
2022-12-18T14:09:03.830Z,-0.90
2022-12-18T14:11:52.825Z,-1.00
2022-12-18T14:14:43.942Z,-1.00
2022-12-18T14:17:32.825Z,-1.00
2022-12-18T14:20:21.841Z,-1.00
2022-12-18T14:23:34.888Z,-1.00
2022-12-18T14:26:30.761Z,-1.10
2022-12-18T14:29:31.785Z,-1.10
2022-12-18T14:32:21.292Z,-1.10
2022-12-18T14:35:14.861Z,-1.10
2022-12-18T14:38:17.055Z,-1.10
2022-12-18T14:41:15.502Z,-1.10
2022-12-18T14:44:07.166Z,-1.00
2022-12-18T14:46:54.355Z,-1.10
2022-12-18T14:49:43.394Z,-1.10
2022-12-18T14:52:32.932Z,0.10
2022-12-18T14:55:21.903Z,-1.20
2022-12-18T14:58:16.380Z,-1.20
2022-12-18T15:01:03.579Z,-1.20
2022-12-18T15:03:52.183Z,-1.20
2022-12-18T15:06:42.615Z,-1.30
2022-12-18T15:09:29.877Z,-1.40
2022-12-18T15:12:37.001Z,-1.40
2022-12-18T15:15:37.080Z,-1.40
2022-12-18T15:18:42.599Z,-1.40
2022-12-18T15:21:32.329Z,-1.50
2022-12-18T15:24:30.821Z,-1.50
2022-12-18T15:27:25.604Z,-1.40
2022-12-18T15:30:15.722Z,-1.50
2022-12-18T15:33:25.807Z,-1.40
2022-12-18T15:36:15.052Z,-1.40
2022-12-18T15:39:05.044Z,-1.40
2022-12-18T15:42:12.516Z,-1.40
2022-12-18T15:44:59.653Z,-1.40
2022-12-18T15:47:46.779Z,-1.40
2022-12-18T15:50:33.953Z,-1.40
2022-12-18T15:53:21.353Z,-1.40
2022-12-18T15:56:34.779Z,-1.40
2022-12-18T15:59:23.636Z,-1.30
2022-12-18T16:02:17.439Z,-0.60
2022-12-18T16:05:10.719Z,-1.40
2022-12-18T16:07:58.144Z,-1.30
2022-12-18T16:10:45.235Z,-1.40
2022-12-18T16:13:32.557Z,-1.40
2022-12-18T16:16:20.058Z,-1.40
2022-12-18T16:19:07.202Z,-1.40
2022-12-18T16:21:56.376Z,-1.30
2022-12-18T16:24:44.392Z,-1.40
2022-12-18T16:27:31.634Z,-1.40
2022-12-18T16:30:30.227Z,-1.40
2022-12-18T16:33:23.404Z,-1.30
2022-12-18T16:36:10.548Z,-1.20
2022-12-18T16:38:57.727Z,-1.20
2022-12-18T16:41:45.071Z,-1.20
2022-12-18T16:44:32.216Z,-1.10
2022-12-18T16:47:19.984Z,-1.10
2022-12-18T16:50:08.253Z,-1.00
2022-12-18T16:52:55.379Z,-0.90
2022-12-18T16:55:42.470Z,-0.80
2022-12-18T16:58:29.646Z,-0.80
2022-12-18T17:01:16.855Z,-0.80
2022-12-18T17:04:06.532Z,-0.80
2022-12-18T17:06:53.945Z,-0.80
2022-12-18T17:09:41.827Z,0.80
2022-12-18T17:12:29.332Z,-0.80
2022-12-18T17:15:16.546Z,-0.80
2022-12-18T17:18:04.530Z,-0.80
2022-12-18T17:20:51.618Z,-0.70
2022-12-18T17:23:39.240Z,-0.70
2022-12-18T17:26:28.569Z,-0.70
2022-12-18T17:29:18.369Z,-0.60
2022-12-18T17:32:06.235Z,-0.60
2022-12-18T17:34:53.750Z,-0.70
2022-12-18T17:37:40.928Z,-0.70
2022-12-18T17:40:28.149Z,-0.60
2022-12-18T17:43:15.287Z,-0.60
2022-12-18T17:46:04.349Z,-0.60
2022-12-18T17:48:52.818Z,-0.60
2022-12-18T17:51:42.263Z,-0.60
2022-12-18T17:54:29.421Z,-0.60
2022-12-18T17:57:16.881Z,-0.60
2022-12-18T18:00:05.812Z,-0.60
2022-12-18T18:02:56.746Z,-0.60
2022-12-18T18:05:43.995Z,-0.60
2022-12-18T18:08:32.127Z,-0.50
2022-12-18T18:11:40.020Z,-0.50
2022-12-18T18:14:27.844Z,-0.40
2022-12-18T18:17:15.148Z,-0.40
2022-12-18T18:20:02.350Z,-0.40
2022-12-18T18:22:49.579Z,-0.40
2022-12-18T18:25:37.713Z,-0.40
2022-12-18T18:28:24.855Z,-0.50
2022-12-18T18:31:12.533Z,-0.50
2022-12-18T18:33:59.694Z,-0.50
2022-12-18T18:36:47.131Z,-0.40
2022-12-18T18:39:34.393Z,-0.50
2022-12-18T18:42:21.554Z,-0.40
2022-12-18T18:45:09.379Z,-0.50
2022-12-18T18:47:56.498Z,-0.50
2022-12-18T18:50:45.746Z,-0.50
2022-12-18T18:53:41.339Z,-0.50
2022-12-18T18:59:36.391Z,-0.50
2022-12-18T19:02:23.668Z,-0.50
2022-12-18T19:05:12.830Z,-0.50
2022-12-18T19:08:00.255Z,-0.60
2022-12-18T19:10:57.546Z,-0.50
2022-12-18T19:13:45.236Z,-0.50
2022-12-18T19:16:33.416Z,-0.50
2022-12-18T19:19:21.089Z,-0.50
2022-12-18T19:22:09.489Z,-0.60
2022-12-18T19:24:56.613Z,-0.60
2022-12-18T19:27:43.764Z,-0.60
2022-12-18T19:30:30.952Z,-0.50
2022-12-18T19:33:41.813Z,-0.60
2022-12-18T19:36:27.526Z,-0.50
2022-12-18T19:39:17.552Z,-0.60
2022-12-18T19:42:04.819Z,-0.50
2022-12-18T19:44:51.908Z,-0.50
2022-12-18T19:47:39.001Z,-0.50
2022-12-18T19:50:26.327Z,-0.50
2022-12-18T19:53:13.537Z,-0.40
2022-12-18T19:56:06.007Z,-0.40
2022-12-18T19:58:54.200Z,-0.30
2022-12-18T20:01:41.479Z,-0.30
2022-12-18T20:04:29.119Z,-0.30
2022-12-18T20:07:16.249Z,-0.40
2022-12-18T20:10:09.129Z,-0.40
2022-12-18T20:12:56.482Z,-0.40
2022-12-18T20:15:45.551Z,-0.30
2022-12-18T20:18:32.953Z,-0.30
2022-12-18T20:21:20.705Z,-0.30
2022-12-18T20:24:08.631Z,-0.30
2022-12-18T20:26:56.466Z,-0.20
2022-12-18T20:29:43.654Z,-0.20
2022-12-18T20:32:36.756Z,-0.30
2022-12-18T20:35:27.995Z,-0.30
2022-12-18T20:38:16.116Z,-0.30
2022-12-18T20:41:12.340Z,0.30
2022-12-18T20:43:59.513Z,-0.30
2022-12-18T20:46:46.607Z,-0.30
2022-12-18T20:49:33.761Z,-0.30
2022-12-18T20:52:21.916Z,-0.30
2022-12-18T20:55:10.909Z,-0.30
2022-12-18T20:57:58.167Z,-0.40
2022-12-18T21:00:45.291Z,-0.40
2022-12-18T21:03:32.518Z,-0.40
2022-12-18T21:06:22.184Z,-0.40
2022-12-18T21:09:09.229Z,-0.30
2022-12-18T21:12:14.773Z,-0.20
2022-12-18T21:15:05.127Z,-0.20
2022-12-18T21:17:52.194Z,-0.20
2022-12-18T21:20:39.942Z,-0.20
2022-12-18T21:23:27.260Z,-0.20
2022-12-18T21:26:17.557Z,-0.20
2022-12-18T21:29:07.777Z,-1.50
2022-12-18T21:31:55.481Z,-0.20
2022-12-18T21:34:47.833Z,-0.10
2022-12-18T21:37:35.708Z,-0.20
2022-12-18T21:40:22.787Z,-0.20
2022-12-18T21:43:28.733Z,-0.20
2022-12-18T21:46:15.962Z,-0.20
2022-12-18T21:49:04.497Z,-0.20
2022-12-18T21:51:53.936Z,-0.10
2022-12-18T21:54:41.171Z,-0.20
2022-12-18T21:57:29.340Z,-0.10
2022-12-18T22:00:19.678Z,-0.10
2022-12-18T22:03:18.895Z,-0.20
2022-12-18T22:06:09.377Z,-0.10
2022-12-18T22:08:56.972Z,-0.20
2022-12-18T22:11:44.435Z,-0.10
2022-12-18T22:14:31.600Z,-0.10
2022-12-18T22:17:18.702Z,-0.10
2022-12-18T22:20:09.244Z,-0.10
2022-12-18T22:22:56.352Z,-0.10
2022-12-18T22:25:43.541Z,-0.10
2022-12-18T22:28:49.660Z,-0.10
2022-12-18T22:31:37.046Z,-0.10
2022-12-18T22:34:25.702Z,-0.10
2022-12-18T22:37:13.745Z,-0.10
2022-12-18T22:40:03.069Z,-0.10
2022-12-18T22:42:51.349Z,-0.10
2022-12-18T22:45:40.083Z,-0.10
2022-12-18T22:48:27.456Z,0.00
2022-12-18T22:51:16.661Z,0.10
2022-12-18T22:54:04.338Z,-2.20
2022-12-18T22:56:52.316Z,0.00
2022-12-18T22:59:39.445Z,0.00
2022-12-18T23:02:27.121Z,0.10
2022-12-18T23:05:14.354Z,0.10
2022-12-18T23:08:01.502Z,0.10
2022-12-18T23:10:52.787Z,0.10
2022-12-18T23:13:40.936Z,0.10
2022-12-18T23:16:28.398Z,0.10
2022-12-18T23:19:15.690Z,0.10
2022-12-18T23:22:05.096Z,0.10
2022-12-18T23:24:55.709Z,0.10
2022-12-18T23:27:42.839Z,0.10
2022-12-18T23:30:30.223Z,0.20
2022-12-18T23:33:17.284Z,0.20
2022-12-18T23:36:05.517Z,0.30
2022-12-18T23:38:55.204Z,0.30
2022-12-18T23:41:42.289Z,0.40
2022-12-18T23:44:29.454Z,0.40
2022-12-18T23:47:16.549Z,0.40
2022-12-18T23:50:04.404Z,0.30
2022-12-18T23:52:51.487Z,0.40
2022-12-18T23:55:43.742Z,0.40
2022-12-18T23:58:31.017Z,2.20
